sensor_id;sensor_type;location;lat;lon;timestamp;P1;durP1;ratioP1;P2;durP2;ratioP2
20443;SDS011;10381;53.730;10.010;2024-02-15T00:02:29;123.60;;;77.77;;
20443;SDS011;10381;53.730;10.010;2024-02-15T00:06:30;128.40;;;85.78;;
20443;SDS011;10381;53.730;10.010;2024-02-15T00:10:31;129.57;;;79.23;;
20443;SDS011;10381;53.730;10.010;2024-02-15T00:14:31;127.85;;;80.93;;
20443;SDS011;10381;53.730;10.010;2024-02-15T00:18:32;132.03;;;84.83;;
20443;SDS011;10381;53.730;10.010;2024-02-15T00:22:32;122.37;;;79.37;;
20443;SDS011;10381;53.730;10.010;2024-02-15T00:26:33;124.68;;;84.53;;
20443;SDS011;10381;53.730;10.010;2024-02-15T00:30:33;136.40;;;89.17;;
20443;SDS011;10381;53.730;10.010;2024-02-15T00:34:33;132.00;;;81.07;;
20443;SDS011;10381;53.730;10.010;2024-02-15T00:38:34;140.30;;;90.40;;
20443;SDS011;10381;53.730;10.010;2024-02-15T00:42:35;132.05;;;88.95;;
20443;SDS011;10381;53.730;10.010;2024-02-15T00:46:35;127.40;;;80.88;;
20443;SDS011;10381;53.730;10.010;2024-02-15T00:50:36;138.52;;;83.75;;
20443;SDS011;10381;53.730;10.010;2024-02-15T00:54:37;124.95;;;79.82;;
20443;SDS011;10381;53.730;10.010;2024-02-15T00:58:37;119.23;;;79.60;;
20443;SDS011;10381;53.730;10.010;2024-02-15T01:02:37;134.87;;;81.23;;
20443;SDS011;10381;53.730;10.010;2024-02-15T01:06:37;127.00;;;76.83;;
20443;SDS011;10381;53.730;10.010;2024-02-15T01:10:38;129.93;;;75.67;;
20443;SDS011;10381;53.730;10.010;2024-02-15T01:14:38;128.02;;;72.78;;
20443;SDS011;10381;53.730;10.010;2024-02-15T01:18:39;128.30;;;78.17;;
20443;SDS011;10381;53.730;10.010;2024-02-15T01:22:39;132.07;;;78.47;;
20443;SDS011;10381;53.730;10.010;2024-02-15T01:26:39;132.57;;;82.35;;
20443;SDS011;10381;53.730;10.010;2024-02-15T01:30:40;132.23;;;85.85;;
20443;SDS011;10381;53.730;10.010;2024-02-15T01:34:43;120.53;;;78.25;;
20443;SDS011;10381;53.730;10.010;2024-02-15T01:38:44;127.13;;;72.83;;
20443;SDS011;10381;53.730;10.010;2024-02-15T01:42:45;113.85;;;73.85;;
20443;SDS011;10381;53.730;10.010;2024-02-15T01:46:45;114.82;;;76.93;;
20443;SDS011;10381;53.730;10.010;2024-02-15T01:50:48;110.78;;;72.18;;
20443;SDS011;10381;53.730;10.010;2024-02-15T01:54:52;113.85;;;66.10;;
20443;SDS011;10381;53.730;10.010;2024-02-15T01:58:53;92.70;;;55.45;;
20443;SDS011;10381;53.730;10.010;2024-02-15T02:02:54;105.60;;;60.53;;
20443;SDS011;10381;53.730;10.010;2024-02-15T02:06:59;129.68;;;65.30;;
20443;SDS011;10381;53.730;10.010;2024-02-15T02:11:00;126.32;;;71.70;;
20443;SDS011;10381;53.730;10.010;2024-02-15T02:15:01;123.78;;;74.47;;
20443;SDS011;10381;53.730;10.010;2024-02-15T02:19:02;123.90;;;73.15;;
20443;SDS011;10381;53.730;10.010;2024-02-15T02:23:09;127.18;;;70.50;;
20443;SDS011;10381;53.730;10.010;2024-02-15T02:27:14;122.32;;;68.10;;
20443;SDS011;10381;53.730;10.010;2024-02-15T02:31:15;129.50;;;68.50;;
20443;SDS011;10381;53.730;10.010;2024-02-15T02:35:15;117.85;;;70.82;;
20443;SDS011;10381;53.730;10.010;2024-02-15T02:39:16;133.77;;;74.60;;
20443;SDS011;10381;53.730;10.010;2024-02-15T02:43:16;146.57;;;75.38;;
20443;SDS011;10381;53.730;10.010;2024-02-15T02:47:16;146.27;;;76.27;;
20443;SDS011;10381;53.730;10.010;2024-02-15T02:51:17;139.30;;;78.30;;
20443;SDS011;10381;53.730;10.010;2024-02-15T02:55:17;140.67;;;77.77;;
20443;SDS011;10381;53.730;10.010;2024-02-15T02:59:17;125.43;;;70.28;;
20443;SDS011;10381;53.730;10.010;2024-02-15T03:03:18;127.63;;;76.27;;
20443;SDS011;10381;53.730;10.010;2024-02-15T03:07:19;123.18;;;68.57;;
20443;SDS011;10381;53.730;10.010;2024-02-15T03:11:19;131.68;;;68.07;;
20443;SDS011;10381;53.730;10.010;2024-02-15T03:15:20;135.25;;;72.85;;
20443;SDS011;10381;53.730;10.010;2024-02-15T03:19:22;122.85;;;75.55;;
20443;SDS011;10381;53.730;10.010;2024-02-15T03:23:23;126.05;;;71.38;;
20443;SDS011;10381;53.730;10.010;2024-02-15T03:27:23;120.57;;;70.27;;
20443;SDS011;10381;53.730;10.010;2024-02-15T03:31:23;146.07;;;70.93;;
20443;SDS011;10381;53.730;10.010;2024-02-15T03:35:24;115.07;;;66.93;;
20443;SDS011;10381;53.730;10.010;2024-02-15T03:39:26;115.18;;;69.97;;
20443;SDS011;10381;53.730;10.010;2024-02-15T03:43:27;115.78;;;64.80;;
20443;SDS011;10381;53.730;10.010;2024-02-15T03:47:27;126.70;;;61.97;;
20443;SDS011;10381;53.730;10.010;2024-02-15T03:51:29;111.72;;;58.10;;
20443;SDS011;10381;53.730;10.010;2024-02-15T03:55:29;104.45;;;59.13;;
20443;SDS011;10381;53.730;10.010;2024-02-15T03:59:29;97.13;;;53.50;;
20443;SDS011;10381;53.730;10.010;2024-02-15T04:03:32;102.90;;;53.85;;
20443;SDS011;10381;53.730;10.010;2024-02-15T04:07:34;88.22;;;53.10;;
20443;SDS011;10381;53.730;10.010;2024-02-15T04:11:34;111.43;;;51.17;;
20443;SDS011;10381;53.730;10.010;2024-02-15T04:15:34;89.90;;;48.07;;
20443;SDS011;10381;53.730;10.010;2024-02-15T04:19:34;100.72;;;50.90;;
20443;SDS011;10381;53.730;10.010;2024-02-15T04:23:35;111.53;;;50.33;;
20443;SDS011;10381;53.730;10.010;2024-02-15T04:27:35;96.70;;;47.50;;
20443;SDS011;10381;53.730;10.010;2024-02-15T04:31:35;91.07;;;45.85;;
20443;SDS011;10381;53.730;10.010;2024-02-15T04:35:39;88.63;;;45.20;;
20443;SDS011;10381;53.730;10.010;2024-02-15T04:39:40;108.13;;;45.65;;
20443;SDS011;10381;53.730;10.010;2024-02-15T04:43:40;102.35;;;45.90;;
20443;SDS011;10381;53.730;10.010;2024-02-15T04:47:42;83.20;;;41.90;;
20443;SDS011;10381;53.730;10.010;2024-02-15T04:51:45;87.28;;;44.58;;
20443;SDS011;10381;53.730;10.010;2024-02-15T04:55:47;79.10;;;43.10;;
20443;SDS011;10381;53.730;10.010;2024-02-15T04:59:48;97.63;;;44.63;;
20443;SDS011;10381;53.730;10.010;2024-02-15T05:03:49;102.68;;;42.45;;
20443;SDS011;10381;53.730;10.010;2024-02-15T05:07:50;91.17;;;43.93;;
20443;SDS011;10381;53.730;10.010;2024-02-15T05:11:50;108.43;;;45.22;;
20443;SDS011;10381;53.730;10.010;2024-02-15T05:15:52;95.75;;;44.38;;
20443;SDS011;10381;53.730;10.010;2024-02-15T05:19:53;100.57;;;43.17;;
20443;SDS011;10381;53.730;10.010;2024-02-15T05:23:53;94.35;;;43.53;;
20443;SDS011;10381;53.730;10.010;2024-02-15T05:27:55;105.68;;;45.33;;
20443;SDS011;10381;53.730;10.010;2024-02-15T05:31:56;95.53;;;43.20;;
20443;SDS011;10381;53.730;10.010;2024-02-15T05:35:56;97.50;;;40.25;;
20443;SDS011;10381;53.730;10.010;2024-02-15T05:39:57;99.40;;;41.78;;
20443;SDS011;10381;53.730;10.010;2024-02-15T05:43:57;99.40;;;41.20;;
20443;SDS011;10381;53.730;10.010;2024-02-15T05:47:58;92.75;;;42.13;;
20443;SDS011;10381;53.730;10.010;2024-02-15T05:51:58;92.43;;;42.80;;
20443;SDS011;10381;53.730;10.010;2024-02-15T05:55:59;121.70;;;48.67;;
20443;SDS011;10381;53.730;10.010;2024-02-15T05:59:59;104.38;;;46.03;;
20443;SDS011;10381;53.730;10.010;2024-02-15T06:04:02;96.30;;;46.22;;
20443;SDS011;10381;53.730;10.010;2024-02-15T06:08:08;98.63;;;45.97;;
20443;SDS011;10381;53.730;10.010;2024-02-15T06:12:08;115.13;;;45.13;;
20443;SDS011;10381;53.730;10.010;2024-02-15T06:16:09;117.90;;;44.10;;
20443;SDS011;10381;53.730;10.010;2024-02-15T06:20:13;100.07;;;42.00;;
20443;SDS011;10381;53.730;10.010;2024-02-15T06:24:14;93.32;;;42.75;;
20443;SDS011;10381;53.730;10.010;2024-02-15T06:28:14;95.37;;;43.23;;
20443;SDS011;10381;53.730;10.010;2024-02-15T06:32:34;87.20;;;43.38;;
20443;SDS011;10381;53.730;10.010;2024-02-15T06:36:55;102.20;;;44.47;;
20443;SDS011;10381;53.730;10.010;2024-02-15T06:41:14;111.05;;;43.28;;
20443;SDS011;10381;53.730;10.010;2024-02-15T06:45:15;83.10;;;39.17;;
20443;SDS011;10381;53.730;10.010;2024-02-15T06:49:16;87.28;;;40.17;;
20443;SDS011;10381;53.730;10.010;2024-02-15T06:53:16;81.53;;;40.13;;
20443;SDS011;10381;53.730;10.010;2024-02-15T06:57:17;102.40;;;40.38;;
20443;SDS011;10381;53.730;10.010;2024-02-15T07:01:18;86.38;;;38.17;;
20443;SDS011;10381;53.730;10.010;2024-02-15T07:05:18;92.93;;;38.20;;
20443;SDS011;10381;53.730;10.010;2024-02-15T07:09:18;97.40;;;42.27;;
20443;SDS011;10381;53.730;10.010;2024-02-15T07:13:20;108.65;;;40.60;;
20443;SDS011;10381;53.730;10.010;2024-02-15T07:17:20;109.33;;;41.10;;
20443;SDS011;10381;53.730;10.010;2024-02-15T07:21:20;88.90;;;40.87;;
20443;SDS011;10381;53.730;10.010;2024-02-15T07:25:26;157.18;;;45.97;;
20443;SDS011;10381;53.730;10.010;2024-02-15T07:29:26;112.83;;;45.93;;
20443;SDS011;10381;53.730;10.010;2024-02-15T07:33:28;122.90;;;46.25;;
20443;SDS011;10381;53.730;10.010;2024-02-15T07:37:28;121.70;;;43.40;;
20443;SDS011;10381;53.730;10.010;2024-02-15T07:41:29;151.53;;;49.27;;
20443;SDS011;10381;53.730;10.010;2024-02-15T07:45:30;146.07;;;45.97;;
20443;SDS011;10381;53.730;10.010;2024-02-15T07:49:32;138.32;;;48.00;;
20443;SDS011;10381;53.730;10.010;2024-02-15T07:53:33;128.18;;;45.15;;
20443;SDS011;10381;53.730;10.010;2024-02-15T07:57:34;122.72;;;44.90;;
20443;SDS011;10381;53.730;10.010;2024-02-15T08:01:35;126.10;;;44.28;;
20443;SDS011;10381;53.730;10.010;2024-02-15T08:05:35;120.90;;;42.85;;
20443;SDS011;10381;53.730;10.010;2024-02-15T08:09:37;87.85;;;39.30;;
20443;SDS011;10381;53.730;10.010;2024-02-15T08:13:37;88.55;;;37.10;;
20443;SDS011;10381;53.730;10.010;2024-02-15T08:17:41;105.45;;;38.90;;
20443;SDS011;10381;53.730;10.010;2024-02-15T08:21:42;102.68;;;40.50;;
20443;SDS011;10381;53.730;10.010;2024-02-15T08:25:46;92.20;;;35.53;;
20443;SDS011;10381;53.730;10.010;2024-02-15T08:29:46;79.45;;;32.75;;
20443;SDS011;10381;53.730;10.010;2024-02-15T08:33:47;73.17;;;33.67;;
20443;SDS011;10381;53.730;10.010;2024-02-15T08:37:47;75.82;;;32.13;;
20443;SDS011;10381;53.730;10.010;2024-02-15T08:41:50;93.13;;;31.13;;
20443;SDS011;10381;53.730;10.010;2024-02-15T08:45:52;79.07;;;32.00;;
20443;SDS011;10381;53.730;10.010;2024-02-15T08:49:53;81.82;;;28.38;;
20443;SDS011;10381;53.730;10.010;2024-02-15T08:53:53;64.95;;;27.38;;
20443;SDS011;10381;53.730;10.010;2024-02-15T08:57:53;93.67;;;29.67;;
20443;SDS011;10381;53.730;10.010;2024-02-15T09:01:55;78.25;;;28.98;;
20443;SDS011;10381;53.730;10.010;2024-02-15T09:05:56;66.43;;;27.23;;
20443;SDS011;10381;53.730;10.010;2024-02-15T09:09:58;61.63;;;27.35;;
20443;SDS011;10381;53.730;10.010;2024-02-15T09:13:58;89.65;;;28.73;;
20443;SDS011;10381;53.730;10.010;2024-02-15T09:17:59;66.93;;;30.57;;
20443;SDS011;10381;53.730;10.010;2024-02-15T09:21:59;78.13;;;29.85;;
20443;SDS011;10381;53.730;10.010;2024-02-15T09:26:00;76.15;;;31.70;;
20443;SDS011;10381;53.730;10.010;2024-02-15T09:30:00;75.37;;;28.80;;
20443;SDS011;10381;53.730;10.010;2024-02-15T09:34:00;75.55;;;27.90;;
20443;SDS011;10381;53.730;10.010;2024-02-15T09:38:01;60.20;;;28.23;;
20443;SDS011;10381;53.730;10.010;2024-02-15T09:42:01;57.50;;;26.60;;
20443;SDS011;10381;53.730;10.010;2024-02-15T09:46:02;70.45;;;27.17;;
20443;SDS011;10381;53.730;10.010;2024-02-15T09:50:05;73.65;;;28.20;;
20443;SDS011;10381;53.730;10.010;2024-02-15T09:54:07;70.07;;;27.20;;
20443;SDS011;10381;53.730;10.010;2024-02-15T09:58:09;69.60;;;25.48;;
20443;SDS011;10381;53.730;10.010;2024-02-15T10:02:10;62.60;;;26.58;;
20443;SDS011;10381;53.730;10.010;2024-02-15T10:06:13;65.60;;;26.60;;
20443;SDS011;10381;53.730;10.010;2024-02-15T10:10:14;65.60;;;26.67;;
20443;SDS011;10381;53.730;10.010;2024-02-15T10:14:22;70.25;;;25.27;;
20443;SDS011;10381;53.730;10.010;2024-02-15T10:18:26;54.45;;;26.42;;
20443;SDS011;10381;53.730;10.010;2024-02-15T10:22:26;66.07;;;24.92;;
20443;SDS011;10381;53.730;10.010;2024-02-15T10:26:26;56.67;;;25.27;;
20443;SDS011;10381;53.730;10.010;2024-02-15T10:30:28;63.13;;;27.20;;
20443;SDS011;10381;53.730;10.010;2024-02-15T10:34:30;55.45;;;24.65;;
20443;SDS011;10381;53.730;10.010;2024-02-15T10:38:31;50.63;;;26.60;;
20443;SDS011;10381;53.730;10.010;2024-02-15T10:42:31;57.25;;;29.63;;
20443;SDS011;10381;53.730;10.010;2024-02-15T10:46:34;56.47;;;29.85;;
20443;SDS011;10381;53.730;10.010;2024-02-15T10:50:34;67.43;;;32.15;;
20443;SDS011;10381;53.730;10.010;2024-02-15T10:54:40;64.45;;;35.38;;
20443;SDS011;10381;53.730;10.010;2024-02-15T10:58:47;80.13;;;34.20;;
20443;SDS011;10381;53.730;10.010;2024-02-15T11:02:54;81.82;;;33.00;;
20443;SDS011;10381;53.730;10.010;2024-02-15T11:07:02;91.85;;;34.90;;
20443;SDS011;10381;53.730;10.010;2024-02-15T11:11:06;86.28;;;37.22;;
20443;SDS011;10381;53.730;10.010;2024-02-15T11:15:07;91.57;;;37.88;;
20443;SDS011;10381;53.730;10.010;2024-02-15T11:19:08;72.93;;;37.13;;
20443;SDS011;10381;53.730;10.010;2024-02-15T11:23:10;83.32;;;37.72;;
20443;SDS011;10381;53.730;10.010;2024-02-15T11:27:10;90.50;;;40.97;;
20443;SDS011;10381;53.730;10.010;2024-02-15T11:31:52;87.95;;;41.72;;
20443;SDS011;10381;53.730;10.010;2024-02-15T11:44:41;113.18;;;44.58;;
20443;SDS011;10381;53.730;10.010;2024-02-15T11:48:41;77.93;;;42.38;;
20443;SDS011;10381;53.730;10.010;2024-02-15T11:52:42;82.72;;;44.67;;
20443;SDS011;10381;53.730;10.010;2024-02-15T11:56:51;84.10;;;45.30;;
20443;SDS011;10381;53.730;10.010;2024-02-15T12:00:58;100.30;;;46.15;;
20443;SDS011;10381;53.730;10.010;2024-02-15T12:05:18;94.80;;;46.17;;
20443;SDS011;10381;53.730;10.010;2024-02-15T12:09:37;107.63;;;52.17;;
20443;SDS011;10381;53.730;10.010;2024-02-15T12:14:04;94.65;;;45.33;;
20443;SDS011;10381;53.730;10.010;2024-02-15T12:18:23;98.22;;;44.80;;
20443;SDS011;10381;53.730;10.010;2024-02-15T12:22:45;86.00;;;43.53;;
20443;SDS011;10381;53.730;10.010;2024-02-15T12:26:47;75.85;;;42.20;;
20443;SDS011;10381;53.730;10.010;2024-02-15T12:30:48;112.00;;;44.65;;
20443;SDS011;10381;53.730;10.010;2024-02-15T12:35:10;88.55;;;41.53;;
20443;SDS011;10381;53.730;10.010;2024-02-15T12:39:25;101.75;;;42.65;;
20443;SDS011;10381;53.730;10.010;2024-02-15T12:43:25;85.38;;;43.13;;
20443;SDS011;10381;53.730;10.010;2024-02-15T12:47:26;97.18;;;41.75;;
20443;SDS011;10381;53.730;10.010;2024-02-15T12:51:30;70.13;;;37.47;;
20443;SDS011;10381;53.730;10.010;2024-02-15T12:55:34;78.20;;;37.10;;
20443;SDS011;10381;53.730;10.010;2024-02-15T12:59:36;75.38;;;35.97;;
20443;SDS011;10381;53.730;10.010;2024-02-15T13:03:37;65.87;;;35.43;;
20443;SDS011;10381;53.730;10.010;2024-02-15T13:07:37;57.57;;;33.27;;
20443;SDS011;10381;53.730;10.010;2024-02-15T13:11:38;54.33;;;34.20;;
20443;SDS011;10381;53.730;10.010;2024-02-15T13:15:38;60.83;;;35.07;;
20443;SDS011;10381;53.730;10.010;2024-02-15T13:19:38;54.40;;;34.83;;
20443;SDS011;10381;53.730;10.010;2024-02-15T13:23:45;52.08;;;34.65;;
20443;SDS011;10381;53.730;10.010;2024-02-15T13:27:45;67.22;;;34.40;;
20443;SDS011;10381;53.730;10.010;2024-02-15T13:31:46;60.28;;;32.92;;
20443;SDS011;10381;53.730;10.010;2024-02-15T13:35:46;52.40;;;34.77;;
20443;SDS011;10381;53.730;10.010;2024-02-15T13:39:47;52.40;;;33.25;;
20443;SDS011;10381;53.730;10.010;2024-02-15T13:43:48;49.33;;;32.97;;
20443;SDS011;10381;53.730;10.010;2024-02-15T13:47:49;46.50;;;31.00;;
20443;SDS011;10381;53.730;10.010;2024-02-15T13:51:50;66.15;;;36.47;;
20443;SDS011;10381;53.730;10.010;2024-02-15T13:55:52;62.08;;;31.40;;
20443;SDS011;10381;53.730;10.010;2024-02-15T13:59:52;48.92;;;30.33;;
20443;SDS011;10381;53.730;10.010;2024-02-15T14:03:52;51.75;;;32.22;;
20443;SDS011;10381;53.730;10.010;2024-02-15T14:07:57;44.23;;;30.20;;
20443;SDS011;10381;53.730;10.010;2024-02-15T14:12:12;50.20;;;28.83;;
20443;SDS011;10381;53.730;10.010;2024-02-15T14:16:13;49.63;;;28.48;;
20443;SDS011;10381;53.730;10.010;2024-02-15T14:20:14;50.45;;;28.65;;
20443;SDS011;10381;53.730;10.010;2024-02-15T14:24:14;50.30;;;28.50;;
20443;SDS011;10381;53.730;10.010;2024-02-15T14:28:15;48.85;;;28.08;;
20443;SDS011;10381;53.730;10.010;2024-02-15T14:32:16;54.13;;;28.77;;
20443;SDS011;10381;53.730;10.010;2024-02-15T14:36:35;45.22;;;26.13;;
20443;SDS011;10381;53.730;10.010;2024-02-15T14:40:39;50.53;;;27.38;;
20443;SDS011;10381;53.730;10.010;2024-02-15T14:44:40;62.13;;;29.25;;
20443;SDS011;10381;53.730;10.010;2024-02-15T14:48:43;44.13;;;25.90;;
20443;SDS011;10381;53.730;10.010;2024-02-15T14:52:46;38.00;;;24.70;;
20443;SDS011;10381;53.730;10.010;2024-02-15T14:56:48;45.08;;;27.75;;
20443;SDS011;10381;53.730;10.010;2024-02-15T15:00:48;42.97;;;27.08;;
20443;SDS011;10381;53.730;10.010;2024-02-15T15:04:49;41.33;;;24.85;;
20443;SDS011;10381;53.730;10.010;2024-02-15T15:09:09;44.47;;;26.10;;
20443;SDS011;10381;53.730;10.010;2024-02-15T15:13:28;50.13;;;24.70;;
20443;SDS011;10381;53.730;10.010;2024-02-15T15:17:28;44.27;;;25.00;;
20443;SDS011;10381;53.730;10.010;2024-02-15T15:21:28;36.00;;;23.73;;
20443;SDS011;10381;53.730;10.010;2024-02-15T15:25:28;45.37;;;23.67;;
20443;SDS011;10381;53.730;10.010;2024-02-15T15:29:29;39.13;;;22.60;;
20443;SDS011;10381;53.730;10.010;2024-02-15T15:33:30;44.35;;;23.05;;
20443;SDS011;10381;53.730;10.010;2024-02-15T15:37:33;52.75;;;24.80;;
20443;SDS011;10381;53.730;10.010;2024-02-15T15:41:33;40.70;;;23.50;;
20443;SDS011;10381;53.730;10.010;2024-02-15T15:45:36;49.25;;;22.60;;
20443;SDS011;10381;53.730;10.010;2024-02-15T15:49:37;43.25;;;21.83;;
20443;SDS011;10381;53.730;10.010;2024-02-15T15:53:37;49.57;;;24.23;;
20443;SDS011;10381;53.730;10.010;2024-02-15T15:57:39;47.60;;;23.45;;
20443;SDS011;10381;53.730;10.010;2024-02-15T16:01:52;48.53;;;21.95;;
20443;SDS011;10381;53.730;10.010;2024-02-15T16:05:53;58.30;;;24.02;;
20443;SDS011;10381;53.730;10.010;2024-02-15T16:09:54;41.33;;;22.63;;
20443;SDS011;10381;53.730;10.010;2024-02-15T16:13:55;58.20;;;24.40;;
20443;SDS011;10381;53.730;10.010;2024-02-15T16:17:55;52.88;;;24.42;;
20443;SDS011;10381;53.730;10.010;2024-02-15T16:21:55;47.88;;;23.52;;
20443;SDS011;10381;53.730;10.010;2024-02-15T16:25:57;60.35;;;25.10;;
20443;SDS011;10381;53.730;10.010;2024-02-15T16:29:58;58.58;;;24.08;;
20443;SDS011;10381;53.730;10.010;2024-02-15T16:34:00;44.28;;;22.40;;
20443;SDS011;10381;53.730;10.010;2024-02-15T16:38:00;52.97;;;23.63;;
20443;SDS011;10381;53.730;10.010;2024-02-15T16:42:01;45.40;;;22.67;;
20443;SDS011;10381;53.730;10.010;2024-02-15T16:46:03;51.63;;;22.35;;
20443;SDS011;10381;53.730;10.010;2024-02-15T16:50:05;53.95;;;23.30;;
20443;SDS011;10381;53.730;10.010;2024-02-15T16:54:07;62.45;;;24.23;;
20443;SDS011;10381;53.730;10.010;2024-02-15T16:58:08;64.05;;;25.33;;
20443;SDS011;10381;53.730;10.010;2024-02-15T17:02:10;46.05;;;22.70;;
20443;SDS011;10381;53.730;10.010;2024-02-15T17:06:11;56.25;;;21.98;;
20443;SDS011;10381;53.730;10.010;2024-02-15T17:10:11;54.67;;;22.33;;
20443;SDS011;10381;53.730;10.010;2024-02-15T17:14:12;43.03;;;22.10;;
20443;SDS011;10381;53.730;10.010;2024-02-15T17:18:17;47.95;;;21.58;;
20443;SDS011;10381;53.730;10.010;2024-02-15T17:22:17;45.65;;;21.75;;
20443;SDS011;10381;53.730;10.010;2024-02-15T17:26:17;52.03;;;23.63;;
20443;SDS011;10381;53.730;10.010;2024-02-15T17:30:19;44.75;;;22.65;;
20443;SDS011;10381;53.730;10.010;2024-02-15T17:34:19;53.00;;;23.25;;
20443;SDS011;10381;53.730;10.010;2024-02-15T17:38:20;49.05;;;23.70;;
20443;SDS011;10381;53.730;10.010;2024-02-15T17:42:20;56.53;;;22.87;;
20443;SDS011;10381;53.730;10.010;2024-02-15T17:46:23;58.10;;;24.97;;
20443;SDS011;10381;53.730;10.010;2024-02-15T17:50:24;63.75;;;28.70;;
20443;SDS011;10381;53.730;10.010;2024-02-15T17:54:25;48.05;;;24.35;;
20443;SDS011;10381;53.730;10.010;2024-02-15T17:58:26;65.57;;;26.45;;
20443;SDS011;10381;53.730;10.010;2024-02-15T18:02:27;51.13;;;24.70;;
20443;SDS011;10381;53.730;10.010;2024-02-15T18:06:27;47.10;;;23.77;;
20443;SDS011;10381;53.730;10.010;2024-02-15T18:10:28;48.88;;;25.20;;
20443;SDS011;10381;53.730;10.010;2024-02-15T18:14:28;42.80;;;23.85;;
20443;SDS011;10381;53.730;10.010;2024-02-15T18:18:29;42.17;;;23.50;;
20443;SDS011;10381;53.730;10.010;2024-02-15T18:22:29;48.97;;;23.13;;
20443;SDS011;10381;53.730;10.010;2024-02-15T18:26:30;54.47;;;25.42;;
20443;SDS011;10381;53.730;10.010;2024-02-15T18:30:30;54.63;;;25.47;;
20443;SDS011;10381;53.730;10.010;2024-02-15T18:34:35;54.47;;;26.60;;
20443;SDS011;10381;53.730;10.010;2024-02-15T18:38:36;70.00;;;28.52;;
20443;SDS011;10381;53.730;10.010;2024-02-15T18:42:38;51.42;;;25.25;;
20443;SDS011;10381;53.730;10.010;2024-02-15T18:46:39;55.63;;;26.67;;
20443;SDS011;10381;53.730;10.010;2024-02-15T18:50:42;54.33;;;27.07;;
20443;SDS011;10381;53.730;10.010;2024-02-15T18:54:44;56.70;;;27.50;;
20443;SDS011;10381;53.730;10.010;2024-02-15T18:58:44;53.03;;;27.63;;
20443;SDS011;10381;53.730;10.010;2024-02-15T19:02:45;59.17;;;28.00;;
20443;SDS011;10381;53.730;10.010;2024-02-15T19:06:46;63.78;;;29.15;;
20443;SDS011;10381;53.730;10.010;2024-02-15T19:10:46;53.00;;;28.50;;
20443;SDS011;10381;53.730;10.010;2024-02-15T19:14:46;68.40;;;28.47;;
20443;SDS011;10381;53.730;10.010;2024-02-15T19:18:47;58.33;;;30.30;;
20443;SDS011;10381;53.730;10.010;2024-02-15T19:22:47;56.03;;;28.13;;
20443;SDS011;10381;53.730;10.010;2024-02-15T19:26:47;59.78;;;30.88;;
20443;SDS011;10381;53.730;10.010;2024-02-15T19:30:48;62.33;;;28.80;;
20443;SDS011;10381;53.730;10.010;2024-02-15T19:34:48;60.78;;;29.30;;
20443;SDS011;10381;53.730;10.010;2024-02-15T19:38:50;52.92;;;28.05;;
20443;SDS011;10381;53.730;10.010;2024-02-15T19:42:51;55.38;;;28.20;;
20443;SDS011;10381;53.730;10.010;2024-02-15T19:46:51;56.35;;;28.65;;
20443;SDS011;10381;53.730;10.010;2024-02-15T19:50:52;64.77;;;29.80;;
20443;SDS011;10381;53.730;10.010;2024-02-15T19:54:52;49.13;;;27.87;;
20443;SDS011;10381;53.730;10.010;2024-02-15T19:58:52;62.97;;;30.60;;
20443;SDS011;10381;53.730;10.010;2024-02-15T20:02:54;52.38;;;29.73;;
20443;SDS011;10381;53.730;10.010;2024-02-15T20:06:55;66.67;;;26.67;;
20443;SDS011;10381;53.730;10.010;2024-02-15T20:10:55;51.85;;;29.05;;
20443;SDS011;10381;53.730;10.010;2024-02-15T20:14:56;44.08;;;26.85;;
20443;SDS011;10381;53.730;10.010;2024-02-15T20:18:56;45.22;;;26.02;;
20443;SDS011;10381;53.730;10.010;2024-02-15T20:22:58;48.80;;;25.60;;
20443;SDS011;10381;53.730;10.010;2024-02-15T20:26:58;40.13;;;24.87;;
20443;SDS011;10381;53.730;10.010;2024-02-15T20:31:00;52.58;;;26.67;;
20443;SDS011;10381;53.730;10.010;2024-02-15T20:35:00;38.53;;;25.52;;
20443;SDS011;10381;53.730;10.010;2024-02-15T20:39:00;35.43;;;24.20;;
20443;SDS011;10381;53.730;10.010;2024-02-15T20:43:01;34.90;;;24.05;;
20443;SDS011;10381;53.730;10.010;2024-02-15T20:47:02;42.50;;;24.67;;
20443;SDS011;10381;53.730;10.010;2024-02-15T20:51:09;32.40;;;23.85;;
20443;SDS011;10381;53.730;10.010;2024-02-15T20:55:10;36.33;;;23.08;;
20443;SDS011;10381;53.730;10.010;2024-02-15T20:59:11;35.17;;;22.83;;
20443;SDS011;10381;53.730;10.010;2024-02-15T21:03:13;37.30;;;24.67;;
20443;SDS011;10381;53.730;10.010;2024-02-15T21:07:13;44.80;;;24.00;;
20443;SDS011;10381;53.730;10.010;2024-02-15T21:11:14;32.35;;;22.05;;
20443;SDS011;10381;53.730;10.010;2024-02-15T21:15:14;35.90;;;24.02;;
20443;SDS011;10381;53.730;10.010;2024-02-15T21:19:15;30.33;;;22.90;;
20443;SDS011;10381;53.730;10.010;2024-02-15T21:23:15;31.92;;;22.77;;
20443;SDS011;10381;53.730;10.010;2024-02-15T21:27:16;34.93;;;24.03;;
20443;SDS011;10381;53.730;10.010;2024-02-15T21:31:17;36.90;;;22.55;;
20443;SDS011;10381;53.730;10.010;2024-02-15T21:35:18;32.00;;;22.63;;
20443;SDS011;10381;53.730;10.010;2024-02-15T21:39:19;36.92;;;22.88;;
20443;SDS011;10381;53.730;10.010;2024-02-15T21:43:24;34.78;;;22.52;;
20443;SDS011;10381;53.730;10.010;2024-02-15T21:47:25;40.03;;;23.97;;
20443;SDS011;10381;53.730;10.010;2024-02-15T21:51:25;38.33;;;23.33;;
20443;SDS011;10381;53.730;10.010;2024-02-15T21:55:25;30.38;;;22.60;;
20443;SDS011;10381;53.730;10.010;2024-02-15T21:59:26;49.22;;;22.50;;
20443;SDS011;10381;53.730;10.010;2024-02-15T22:03:26;42.87;;;28.00;;
20443;SDS011;10381;53.730;10.010;2024-02-15T22:07:26;26.97;;;21.03;;
20443;SDS011;10381;53.730;10.010;2024-02-15T22:11:27;30.83;;;20.60;;
20443;SDS011;10381;53.730;10.010;2024-02-15T22:15:27;29.50;;;19.67;;
20443;SDS011;10381;53.730;10.010;2024-02-15T22:19:27;27.13;;;21.07;;
20443;SDS011;10381;53.730;10.010;2024-02-15T22:23:27;31.07;;;21.60;;
20443;SDS011;10381;53.730;10.010;2024-02-15T22:27:29;25.08;;;20.02;;
20443;SDS011;10381;53.730;10.010;2024-02-15T22:31:29;26.40;;;21.03;;
20443;SDS011;10381;53.730;10.010;2024-02-15T22:35:29;25.33;;;19.73;;
20443;SDS011;10381;53.730;10.010;2024-02-15T22:39:29;23.90;;;20.13;;
20443;SDS011;10381;53.730;10.010;2024-02-15T22:43:31;26.95;;;20.05;;
20443;SDS011;10381;53.730;10.010;2024-02-15T22:47:33;29.88;;;21.10;;
20443;SDS011;10381;53.730;10.010;2024-02-15T22:51:34;24.40;;;19.88;;
20443;SDS011;10381;53.730;10.010;2024-02-15T22:55:40;30.20;;;18.55;;
20443;SDS011;10381;53.730;10.010;2024-02-15T22:59:40;23.33;;;17.98;;
20443;SDS011;10381;53.730;10.010;2024-02-15T23:03:40;28.03;;;18.10;;
20443;SDS011;10381;53.730;10.010;2024-02-15T23:07:41;26.90;;;19.05;;
20443;SDS011;10381;53.730;10.010;2024-02-15T23:11:41;27.87;;;19.07;;
20443;SDS011;10381;53.730;10.010;2024-02-15T23:15:42;22.77;;;18.47;;
20443;SDS011;10381;53.730;10.010;2024-02-15T23:19:42;23.20;;;17.33;;